[FIXED] Vertical visibilisty not extracted

Post Reply [phpBB Debug] PHP Warning: in file [ROOT]/vendor/twig/twig/lib/Twig/Extension/Core.php on line 1266: count(): Parameter must be an array or an object that implements Countable
JeV
Posts:7
Joined:03 Apr 2008, 22:29
VATSIM ID:0
Location:Warsaw, Poland
Contact:
[FIXED] Vertical visibilisty not extracted

Post by JeV » 07 Feb 2009, 10:15

Hi! VV002 is not extracted from METAR correctly, would you check :)?

EPGD 070830Z 14004KT 110V180 0100 R29/0250 FG VV002 01/00 Q0992

http://www.uniatis.net/atis.php?depfr=1 ... 0992&debug

Regards! Marcin

Sami Ylismäki
Site Admin
Posts:31
Joined:16 Jan 2008, 23:13
VATSIM ID:878340
Location:Helsinki, Finland
Contact:

Re: [FIXED] Vertical visibilisty not extracted

Post by Sami Ylismäki » 09 Feb 2009, 09:32

VV was replaced by 'no clouds' message when there was no clouds present in METAR. It's been altered to take VV into count as well.

Post Reply
[phpBB Debug] PHP Warning: in file [ROOT]/vendor/twig/twig/lib/Twig/Extension/Core.php on line 1266: count(): Parameter must be an array or an object that implements Countable
[phpBB Debug] PHP Warning: in file [ROOT]/vendor/twig/twig/lib/Twig/Extension/Core.php on line 1266: count(): Parameter must be an array or an object that implements Countable

Who is online

Users browsing this forum: No registered users and 1 guest